Terminal Aerodrome Forecast
Issued by NWS

Home | Current Version | Previous Version | Text Only | Print | Product List | Glossary On
Versions: 1 2 3 4 5 6 7 8 9 10 11 12
639
FTUS45 KABQ 281120
TAFROW
TAF
KROW 281120Z 2812/2912 36008KT P6SM FEW150
     FM281800 16008KT P6SM SKC
     FM291000 16007KT P6SM BKN010=

USA.gov is the U.S. government's official web portal to all federal, state and local government web resources and services.